createdAt,value
2022-11-05T00:00:35.219Z,1.98
2022-11-05T00:03:20.582Z,2.00
2022-11-05T00:06:09.444Z,2.22
2022-11-05T00:08:55.141Z,2.40
2022-11-05T00:11:41.703Z,2.22
2022-11-05T00:14:27.165Z,2.55
2022-11-05T00:16:53.498Z,2.30
2022-11-05T00:19:19.800Z,2.42
2022-11-05T00:22:04.933Z,2.78
2022-11-05T00:24:49.769Z,2.50
2022-11-05T00:27:16.596Z,3.45
2022-11-05T00:29:42.909Z,3.00
2022-11-05T00:32:09.375Z,2.20
2022-11-05T00:34:36.212Z,2.42
2022-11-05T00:37:02.534Z,2.67
2022-11-05T00:39:28.837Z,3.05
2022-11-05T00:42:14.142Z,2.75
2022-11-05T00:47:44.082Z,2.97
2022-11-05T00:50:11.964Z,4.03
2022-11-05T00:52:58.213Z,3.55
2022-11-05T00:55:43.288Z,4.07
2022-11-05T00:58:12.119Z,4.47
2022-11-05T01:00:41.692Z,3.97
2022-11-05T01:03:11.381Z,4.53
2022-11-05T01:05:40.613Z,4.25
2022-11-05T01:08:07.742Z,3.72
2022-11-05T01:10:34.509Z,3.97
2022-11-05T01:13:00.898Z,4.35
2022-11-05T01:15:27.601Z,4.70
2022-11-05T01:17:53.966Z,5.22
2022-11-05T01:20:20.301Z,5.40
2022-11-05T01:22:47.143Z,4.78
2022-11-05T01:25:13.462Z,4.68
2022-11-05T01:27:39.900Z,5.13
2022-11-05T01:30:09.202Z,4.70
2022-11-05T01:32:36.735Z,5.35
2022-11-05T01:35:08.120Z,5.10
2022-11-05T01:37:35.706Z,5.93
2022-11-05T01:40:02.509Z,7.20
2022-11-05T01:42:32.011Z,8.05
2022-11-05T01:45:01.925Z,7.38
2022-11-05T01:47:32.267Z,8.80
2022-11-05T01:50:03.365Z,9.63
2022-11-05T01:52:32.285Z,9.27
2022-11-05T01:54:59.068Z,10.43
2022-11-05T01:57:27.193Z,9.38
2022-11-05T01:59:58.416Z,10.43
2022-11-05T02:02:25.460Z,10.25
2022-11-05T02:04:57.364Z,10.25
2022-11-05T02:07:26.774Z,8.88
2022-11-05T02:09:56.961Z,10.30
2022-11-05T02:12:24.061Z,8.30
2022-11-05T02:14:50.416Z,8.02
2022-11-05T02:17:51.219Z,5.90
2022-11-05T02:20:35.934Z,5.78
2022-11-05T02:23:34.802Z,5.80
2022-11-05T02:26:16.326Z,8.80
2022-11-05T02:28:55.194Z,10.98
2022-11-05T02:31:30.561Z,10.80
2022-11-05T02:34:16.138Z,10.13
2022-11-05T02:37:07.789Z,7.00
2022-11-05T02:39:55.613Z,8.20
2022-11-05T02:42:31.062Z,10.02
2022-11-05T02:45:24.802Z,9.15
2022-11-05T02:48:07.957Z,10.35
2022-11-05T02:50:53.242Z,11.00
2022-11-05T02:56:07.353Z,9.68
2022-11-05T02:58:35.118Z,10.45
2022-11-05T03:01:06.634Z,10.57
2022-11-05T03:03:38.535Z,11.18
2022-11-05T03:06:33.902Z,10.18
2022-11-05T03:09:21.640Z,10.40
2022-11-05T03:12:09.321Z,11.32
2022-11-05T03:14:56.349Z,11.82
2022-11-05T03:17:43.741Z,10.60
2022-11-05T03:20:21.742Z,6.03
2022-11-05T03:23:01.509Z,7.18
2022-11-05T03:25:30.222Z,8.30
2022-11-05T03:28:02.747Z,7.30
2022-11-05T03:30:33.049Z,7.10
2022-11-05T03:33:05.610Z,5.88
2022-11-05T03:35:38.002Z,5.47
2022-11-05T03:38:10.154Z,5.57
2022-11-05T03:40:38.938Z,5.68
2022-11-05T03:43:08.135Z,6.65
2022-11-05T03:46:00.618Z,8.23
2022-11-05T03:48:30.174Z,9.13
2022-11-05T03:51:08.426Z,10.32
2022-11-05T03:53:48.025Z,10.38
2022-11-05T03:56:22.959Z,10.55
2022-11-05T04:01:21.268Z,8.77
2022-11-05T04:03:48.002Z,9.35
2022-11-05T04:06:32.937Z,9.05
2022-11-05T04:09:18.149Z,8.77
2022-11-05T04:14:31.028Z,7.05
2022-11-05T04:17:09.892Z,7.43
2022-11-05T04:20:01.040Z,6.38
2022-11-05T04:22:48.306Z,5.15
2022-11-05T04:25:16.619Z,4.82
2022-11-05T04:27:43.932Z,5.05
2022-11-05T04:30:20.656Z,6.53
2022-11-05T04:33:05.264Z,7.07
2022-11-05T04:35:41.253Z,6.70
2022-11-05T04:38:10.135Z,6.90
2022-11-05T04:40:37.222Z,6.38
2022-11-05T04:43:06.545Z,5.13
2022-11-05T04:45:36.617Z,3.97
2022-11-05T04:48:05.318Z,3.65
2022-11-05T04:50:32.870Z,4.07
2022-11-05T04:52:59.310Z,4.15
2022-11-05T04:55:26.419Z,4.45
2022-11-05T04:57:54.342Z,5.38
2022-11-05T05:00:22.317Z,5.38
2022-11-05T05:02:49.288Z,5.43
2022-11-05T05:05:16.212Z,5.78
2022-11-05T05:07:43.125Z,4.93
2022-11-05T05:10:10.793Z,4.97
2022-11-05T05:12:37.179Z,5.40
2022-11-05T05:15:04.142Z,5.47
2022-11-05T05:17:31.021Z,5.88
2022-11-05T05:20:16.025Z,4.38
2022-11-05T05:22:42.727Z,5.50
2022-11-05T05:25:09.297Z,5.25
2022-11-05T05:27:35.621Z,4.60
2022-11-05T05:30:02.914Z,5.70
2022-11-05T05:32:29.226Z,5.10
2022-11-05T05:34:55.671Z,4.57
2022-11-05T05:37:22.447Z,4.03
2022-11-05T05:39:49.673Z,4.07
2022-11-05T05:42:16.065Z,2.80
2022-11-05T05:44:42.851Z,3.80
2022-11-05T05:47:09.368Z,3.45
2022-11-05T05:49:35.696Z,3.28
2022-11-05T05:52:02.474Z,3.40
2022-11-05T05:54:32.314Z,2.90
2022-11-05T05:57:00.285Z,2.83
2022-11-05T05:59:26.616Z,3.85
2022-11-05T06:01:53.833Z,3.53
2022-11-05T06:04:20.629Z,3.70
2022-11-05T06:06:46.997Z,3.78
2022-11-05T06:09:14.671Z,4.50
2022-11-05T06:11:41.525Z,4.40
2022-11-05T06:14:12.838Z,4.00
2022-11-05T06:16:40.075Z,4.18
2022-11-05T06:19:07.370Z,4.35
2022-11-05T06:21:34.109Z,4.13
2022-11-05T06:24:02.199Z,4.32
2022-11-05T06:26:29.058Z,5.00
2022-11-05T06:28:55.849Z,4.65
2022-11-05T06:31:22.251Z,4.78
2022-11-05T06:33:48.766Z,4.70
2022-11-05T06:36:17.246Z,4.63
2022-11-05T06:38:43.943Z,4.70
2022-11-05T06:41:10.949Z,4.07
2022-11-05T06:43:38.302Z,4.85
2022-11-05T06:46:05.223Z,4.35
2022-11-05T06:48:31.801Z,4.25
2022-11-05T06:50:58.770Z,4.43
2022-11-05T06:53:25.209Z,4.13
2022-11-05T06:55:51.619Z,4.75
2022-11-05T06:58:18.535Z,4.70
2022-11-05T07:00:45.283Z,4.40
2022-11-05T07:03:12.889Z,4.13
2022-11-05T07:05:46.896Z,4.53
2022-11-05T07:08:13.371Z,4.50
2022-11-05T07:10:39.764Z,5.45
2022-11-05T07:13:08.426Z,6.20
2022-11-05T07:15:35.604Z,6.00
2022-11-05T07:18:02.657Z,5.72
2022-11-05T07:20:33.585Z,5.78
2022-11-05T07:23:05.805Z,6.82
2022-11-05T07:25:33.399Z,6.25
2022-11-05T07:28:00.262Z,6.07
2022-11-05T07:30:27.537Z,6.32
2022-11-05T07:32:53.938Z,5.88
2022-11-05T07:35:20.399Z,6.20
2022-11-05T07:37:49.697Z,5.95
2022-11-05T07:40:20.907Z,5.20
2022-11-05T07:42:50.425Z,4.00
2022-11-05T07:45:17.118Z,4.75
2022-11-05T07:47:52.812Z,3.90
2022-11-05T07:50:21.716Z,3.50
2022-11-05T07:52:48.870Z,3.83
2022-11-05T07:55:18.665Z,4.40
2022-11-05T07:57:47.748Z,3.25
2022-11-05T08:00:17.145Z,2.60
2022-11-05T08:02:44.540Z,2.95
2022-11-05T08:05:11.139Z,3.30
2022-11-05T08:07:37.489Z,2.70
2022-11-05T08:10:04.975Z,2.70
2022-11-05T08:12:32.416Z,2.05
2022-11-05T08:14:58.823Z,2.10
2022-11-05T08:17:25.573Z,1.63
2022-11-05T08:19:51.923Z,1.60
2022-11-05T08:22:18.349Z,0.75
2022-11-05T08:24:45.101Z,1.40
2022-11-05T08:27:11.424Z,1.00
2022-11-05T08:29:37.748Z,1.15
2022-11-05T08:32:04.580Z,0.75
2022-11-05T08:34:30.928Z,0.90
2022-11-05T08:36:57.346Z,1.00
2022-11-05T08:39:24.164Z,1.10
2022-11-05T08:41:50.699Z,0.90
2022-11-05T08:44:17.307Z,0.98
2022-11-05T08:46:44.296Z,1.00
2022-11-05T08:49:10.757Z,1.00
2022-11-05T08:51:37.082Z,0.80
2022-11-05T08:54:04.257Z,0.93
2022-11-05T08:56:30.650Z,0.80
2022-11-05T08:58:56.950Z,0.70
2022-11-05T09:01:23.911Z,0.70
2022-11-05T09:03:51.800Z,0.80
2022-11-05T09:06:22.570Z,0.70
2022-11-05T09:08:49.249Z,0.82
2022-11-05T09:11:15.600Z,5.10
2022-11-05T09:13:42.286Z,2.35
2022-11-05T09:16:18.700Z,1.30
2022-11-05T09:18:45.041Z,0.80
2022-11-05T09:21:11.373Z,1.40
2022-11-05T09:23:38.131Z,1.15
2022-11-05T09:26:05.246Z,0.60
2022-11-05T09:28:32.330Z,0.60
2022-11-05T09:30:58.644Z,0.70
2022-11-05T09:33:27.139Z,0.50
2022-11-05T09:35:53.710Z,0.98
2022-11-05T09:38:20.174Z,1.48
2022-11-05T09:41:01.161Z,2.15
2022-11-05T09:43:33.645Z,2.42
2022-11-05T09:46:09.907Z,2.80
2022-11-05T09:48:38.650Z,3.30
2022-11-05T09:51:05.976Z,3.38
2022-11-05T09:53:34.955Z,4.28
2022-11-05T09:56:01.453Z,3.67
2022-11-05T09:59:00.583Z,4.07
2022-11-05T10:01:33.309Z,4.28
2022-11-05T10:04:06.418Z,4.85
2022-11-05T10:06:33.021Z,4.20
2022-11-05T10:09:09.458Z,4.53
2022-11-05T10:11:43.689Z,5.15
2022-11-05T10:14:17.199Z,5.90
2022-11-05T10:16:50.173Z,5.10
2022-11-05T10:19:24.725Z,4.88
2022-11-05T10:22:06.704Z,5.32
2022-11-05T10:24:34.322Z,5.22
2022-11-05T10:27:01.403Z,5.03
2022-11-05T10:29:32.249Z,5.43
2022-11-05T10:32:01.630Z,6.05
2022-11-05T10:34:33.520Z,5.28
2022-11-05T10:37:00.685Z,5.75
2022-11-05T10:39:29.608Z,5.50
2022-11-05T10:42:11.684Z,5.50
2022-11-05T10:44:53.554Z,4.93
2022-11-05T10:47:41.556Z,6.25
2022-11-05T10:50:17.123Z,6.00
2022-11-05T10:52:58.360Z,5.13
2022-11-05T10:55:27.306Z,5.40
2022-11-05T10:57:54.373Z,5.22
2022-11-05T11:00:24.614Z,5.10
2022-11-05T11:03:04.309Z,4.78
2022-11-05T11:05:32.598Z,5.75
2022-11-05T11:08:13.327Z,5.10
2022-11-05T11:10:47.750Z,6.13
2022-11-05T11:13:40.713Z,9.98
2022-11-05T11:16:21.606Z,4.85
2022-11-05T11:18:53.945Z,5.57
2022-11-05T11:21:23.075Z,5.03
2022-11-05T11:23:59.054Z,5.03
2022-11-05T11:26:28.977Z,5.10
2022-11-05T11:29:28.424Z,4.97
2022-11-05T11:31:56.803Z,4.80
2022-11-05T11:34:30.205Z,4.78
2022-11-05T11:37:07.854Z,5.43
2022-11-05T11:39:35.509Z,4.75
2022-11-05T11:42:09.095Z,5.10
2022-11-05T11:44:44.961Z,5.03
2022-11-05T11:47:17.819Z,4.75
2022-11-05T11:50:03.475Z,5.22
2022-11-05T11:52:37.293Z,3.80
2022-11-05T11:55:13.600Z,2.40
2022-11-05T11:57:51.718Z,2.45
2022-11-05T12:00:20.377Z,2.20
2022-11-05T12:02:50.112Z,1.92
2022-11-05T12:05:41.739Z,2.10
2022-11-05T12:08:45.652Z,2.10
2022-11-05T12:11:24.344Z,2.03
2022-11-05T12:14:02.541Z,1.98
2022-11-05T12:16:35.738Z,1.85
2022-11-05T12:19:23.237Z,1.95
2022-11-05T12:22:08.045Z,2.20
2022-11-05T12:25:21.081Z,1.90
2022-11-05T12:28:15.474Z,2.30
2022-11-05T12:30:51.329Z,2.20
2022-11-05T12:33:28.884Z,2.50
2022-11-05T12:36:00.701Z,2.10
2022-11-05T12:38:45.773Z,2.40
2022-11-05T12:41:34.261Z,2.28
2022-11-05T12:44:34.893Z,2.38
2022-11-05T12:47:04.838Z,3.15
2022-11-05T12:49:38.411Z,2.97
2022-11-05T12:52:14.385Z,3.65
2022-11-05T12:54:52.981Z,3.35
2022-11-05T12:57:22.935Z,3.63
2022-11-05T13:00:18.863Z,3.45
2022-11-05T13:02:55.005Z,3.78
2022-11-05T13:05:34.124Z,3.72
2022-11-05T13:08:10.688Z,3.47
2022-11-05T13:10:44.726Z,3.30
2022-11-05T13:13:23.262Z,3.50
2022-11-05T13:15:54.222Z,3.42
2022-11-05T13:18:42.006Z,4.40
2022-11-05T13:21:10.307Z,4.03
2022-11-05T13:23:49.450Z,4.22
2022-11-05T13:26:23.779Z,4.05
2022-11-05T13:29:04.662Z,4.90
2022-11-05T13:31:36.852Z,3.90
2022-11-05T13:34:09.925Z,4.00
2022-11-05T13:37:10.332Z,3.67
2022-11-05T13:39:53.840Z,3.83
2022-11-05T13:42:39.888Z,7.47
2022-11-05T13:45:28.146Z,3.65
2022-11-05T13:48:13.288Z,2.97
2022-11-05T13:53:55.682Z,2.60
2022-11-05T13:56:37.384Z,5.90
2022-11-05T13:59:34.250Z,4.38
2022-11-05T14:02:10.744Z,3.10
2022-11-05T14:04:43.863Z,2.78
2022-11-05T14:07:18.727Z,3.17
2022-11-05T14:12:27.744Z,2.60
2022-11-05T14:15:02.934Z,2.55
2022-11-05T14:17:52.301Z,3.00
2022-11-05T14:20:31.281Z,3.42
2022-11-05T14:23:26.315Z,4.07
2022-11-05T14:26:14.373Z,4.80
2022-11-05T14:28:45.066Z,6.40
2022-11-05T14:31:47.388Z,4.65
2022-11-05T14:34:13.522Z,5.30
2022-11-05T14:36:44.679Z,4.47
2022-11-05T14:39:28.426Z,4.78
2022-11-05T14:41:56.706Z,4.60
2022-11-05T14:44:25.021Z,4.60
2022-11-05T14:46:55.080Z,4.50
2022-11-05T14:49:26.628Z,4.60
2022-11-05T14:51:57.099Z,5.53
2022-11-05T14:54:25.789Z,5.25
2022-11-05T14:56:57.142Z,5.63
2022-11-05T14:59:23.777Z,5.95
2022-11-05T15:01:50.126Z,5.40
2022-11-05T15:04:30.726Z,5.53
2022-11-05T15:07:03.028Z,5.22
2022-11-05T15:09:39.030Z,5.55
2022-11-05T15:12:05.466Z,5.22
2022-11-05T15:14:37.850Z,5.43
2022-11-05T15:17:16.252Z,5.93
2022-11-05T15:19:43.599Z,5.82
2022-11-05T15:22:32.521Z,5.53
2022-11-05T15:24:59.168Z,5.18
2022-11-05T15:27:25.463Z,5.75
2022-11-05T15:29:52.354Z,5.65
2022-11-05T15:32:23.349Z,5.95
2022-11-05T15:34:55.253Z,5.75
2022-11-05T15:37:25.393Z,5.40
2022-11-05T15:39:54.001Z,5.30
2022-11-05T15:42:26.570Z,6.32
2022-11-05T15:44:55.442Z,5.55
2022-11-05T15:47:21.726Z,10.13
2022-11-05T15:49:54.486Z,7.07
2022-11-05T15:52:54.648Z,7.88
2022-11-05T15:55:26.605Z,6.22
2022-11-05T15:58:00.106Z,8.07
2022-11-05T16:00:29.816Z,6.45
2022-11-05T16:03:00.443Z,6.80
2022-11-05T16:05:31.411Z,6.32
2022-11-05T16:07:59.911Z,6.88
2022-11-05T16:10:31.200Z,6.15
2022-11-05T16:12:57.564Z,4.93
2022-11-05T16:15:29.339Z,5.07
2022-11-05T16:17:59.010Z,4.30
2022-11-05T16:20:35.596Z,4.40
2022-11-05T16:23:22.080Z,4.88
2022-11-05T16:25:48.521Z,5.22
2022-11-05T16:28:30.346Z,5.40
2022-11-05T16:31:04.496Z,5.40
2022-11-05T16:33:40.775Z,4.80
2022-11-05T16:36:08.637Z,5.10
2022-11-05T16:38:35.040Z,5.63
2022-11-05T16:41:01.846Z,5.82
2022-11-05T16:43:28.209Z,6.15
2022-11-05T16:45:57.937Z,6.05
2022-11-05T16:48:25.704Z,5.97
2022-11-05T16:50:52.260Z,6.47
2022-11-05T16:53:18.626Z,6.90
2022-11-05T16:55:46.552Z,6.28
2022-11-05T16:58:22.169Z,5.63
2022-11-05T17:00:51.096Z,6.80
2022-11-05T17:03:17.773Z,6.22
2022-11-05T17:05:44.940Z,6.57
2022-11-05T17:08:11.684Z,6.95
2022-11-05T17:10:38.305Z,6.07
2022-11-05T17:13:05.022Z,6.32
2022-11-05T17:15:35.324Z,7.40
2022-11-05T17:18:03.436Z,6.07
2022-11-05T17:20:56.547Z,7.20
2022-11-05T17:23:26.641Z,6.15
2022-11-05T17:25:56.356Z,6.32
2022-11-05T17:28:23.295Z,6.57
2022-11-05T17:30:52.967Z,6.18
2022-11-05T17:33:20.870Z,5.85
2022-11-05T17:35:47.803Z,7.35
2022-11-05T17:38:14.814Z,7.75
2022-11-05T17:40:41.742Z,8.18
2022-11-05T17:43:09.388Z,7.30
2022-11-05T17:45:41.744Z,7.03
2022-11-05T17:48:09.622Z,8.70
2022-11-05T17:50:40.576Z,7.32
2022-11-05T17:53:07.412Z,7.03
2022-11-05T17:55:34.198Z,6.97
2022-11-05T17:58:00.629Z,6.03
2022-11-05T18:00:27.883Z,6.70
2022-11-05T18:02:54.505Z,6.47
2022-11-05T18:05:22.270Z,6.15
2022-11-05T18:07:49.969Z,5.80
2022-11-05T18:10:16.546Z,6.53
2022-11-05T18:12:43.340Z,6.65
2022-11-05T18:15:10.245Z,7.20
2022-11-05T18:17:37.088Z,6.80
2022-11-05T18:20:10.649Z,6.20
2022-11-05T18:22:40.877Z,6.53
2022-11-05T18:25:08.742Z,6.85
2022-11-05T18:27:35.500Z,6.80
2022-11-05T18:30:02.089Z,6.07
2022-11-05T18:32:28.425Z,6.97
2022-11-05T18:34:54.770Z,6.53
2022-11-05T18:37:21.304Z,7.18
2022-11-05T18:39:51.169Z,6.63
2022-11-05T18:42:18.136Z,6.65
2022-11-05T18:44:44.967Z,7.15
2022-11-05T18:47:11.825Z,6.85
2022-11-05T18:49:38.176Z,8.05
2022-11-05T18:52:05.463Z,7.93
2022-11-05T18:54:31.885Z,7.22
2022-11-05T18:56:58.507Z,6.68
2022-11-05T18:59:40.678Z,6.80
2022-11-05T19:02:08.784Z,7.72
2022-11-05T19:04:36.935Z,7.25
2022-11-05T19:07:05.435Z,7.28
2022-11-05T19:09:36.682Z,7.03
2022-11-05T19:12:04.427Z,6.00
2022-11-05T19:14:31.173Z,7.32
2022-11-05T19:16:59.082Z,6.47
2022-11-05T19:19:26.101Z,6.18
2022-11-05T19:21:52.462Z,5.88
2022-11-05T19:24:19.005Z,5.90
2022-11-05T19:26:46.534Z,6.00
2022-11-05T19:29:12.844Z,5.95
2022-11-05T19:31:39.158Z,5.72
2022-11-05T19:34:05.954Z,5.38
2022-11-05T19:36:33.195Z,5.63
2022-11-05T19:39:08.623Z,6.30
2022-11-05T19:41:35.282Z,6.40
2022-11-05T19:44:02.023Z,6.15
2022-11-05T19:46:30.913Z,5.28
2022-11-05T19:48:58.986Z,6.68
2022-11-05T19:51:27.580Z,7.53
2022-11-05T19:53:55.104Z,7.03
2022-11-05T19:56:23.794Z,5.43
2022-11-05T19:58:50.987Z,5.70
2022-11-05T20:01:18.575Z,5.45
2022-11-05T20:03:45.719Z,5.50
2022-11-05T20:06:21.611Z,5.28
2022-11-05T20:09:15.368Z,6.45
2022-11-05T20:11:39.863Z,5.97
2022-11-05T20:14:08.092Z,5.90
2022-11-05T20:16:39.903Z,6.07
2022-11-05T20:19:09.366Z,5.20
2022-11-05T20:21:35.835Z,5.18
2022-11-05T20:24:02.423Z,4.93
2022-11-05T20:26:29.817Z,4.63
2022-11-05T20:28:56.377Z,4.80
2022-11-05T20:31:22.965Z,5.18
2022-11-05T20:33:49.881Z,5.20
2022-11-05T20:36:22.054Z,5.47
2022-11-05T20:38:55.677Z,5.47
2022-11-05T20:41:22.164Z,5.18
2022-11-05T20:43:48.978Z,4.93
2022-11-05T20:46:17.908Z,5.15
2022-11-05T20:48:44.741Z,5.20
2022-11-05T20:51:17.084Z,6.13
2022-11-05T20:53:43.981Z,5.65
2022-11-05T20:56:19.322Z,5.32
2022-11-05T20:58:46.321Z,5.53
2022-11-05T21:01:13.809Z,5.88
2022-11-05T21:03:40.687Z,6.10
2022-11-05T21:06:07.581Z,5.10
2022-11-05T21:08:34.473Z,5.70
2022-11-05T21:11:00.875Z,4.60
2022-11-05T21:13:28.209Z,4.90
2022-11-05T21:15:57.013Z,5.70
2022-11-05T21:18:25.590Z,5.20
2022-11-05T21:20:52.484Z,5.70
2022-11-05T21:23:19.484Z,5.90
2022-11-05T21:25:46.584Z,5.63
2022-11-05T21:28:14.896Z,4.32
2022-11-05T21:30:45.472Z,4.50
2022-11-05T21:33:13.433Z,4.70
2022-11-05T21:35:41.513Z,4.30
2022-11-05T21:38:07.873Z,5.28
2022-11-05T21:40:34.712Z,6.45
2022-11-05T21:43:01.022Z,5.47
2022-11-05T21:45:27.551Z,4.90
2022-11-05T21:47:54.310Z,5.40
2022-11-05T21:50:40.619Z,5.45
2022-11-05T21:53:31.950Z,7.88
2022-11-05T21:56:17.232Z,10.57
2022-11-05T22:01:29.061Z,16.13
2022-11-05T22:04:00.313Z,7.45
2022-11-05T22:06:29.583Z,7.72
2022-11-05T22:08:55.898Z,6.55
2022-11-05T22:11:22.209Z,10.18
2022-11-05T22:13:48.958Z,11.10
2022-11-05T22:16:15.316Z,10.27
2022-11-05T22:18:41.640Z,12.20
2022-11-05T22:21:08.383Z,12.57
2022-11-05T22:23:34.683Z,13.02
2022-11-05T22:26:01.752Z,9.32
2022-11-05T22:28:28.625Z,10.02
2022-11-05T22:30:55.565Z,9.23
2022-11-05T22:33:21.887Z,8.25
2022-11-05T22:35:48.600Z,9.20
2022-11-05T22:38:15.490Z,10.52
2022-11-05T22:40:41.857Z,10.35
2022-11-05T22:43:08.523Z,9.50
2022-11-05T22:45:36.373Z,14.55
2022-11-05T22:48:06.717Z,14.25
2022-11-05T22:50:33.858Z,12.35
2022-11-05T22:53:00.176Z,9.90
2022-11-05T22:55:26.495Z,7.18
2022-11-05T22:57:53.221Z,6.15
2022-11-05T23:00:19.611Z,5.63
2022-11-05T23:02:46.113Z,5.22
2022-11-05T23:05:13.183Z,4.53
2022-11-05T23:07:57.904Z,5.18
2022-11-05T23:10:42.881Z,4.32
2022-11-05T23:13:09.226Z,3.80
2022-11-05T23:15:54.566Z,4.30
2022-11-05T23:21:25.249Z,3.65
2022-11-05T23:24:06.422Z,4.35
2022-11-05T23:26:50.467Z,4.68
2022-11-05T23:29:22.571Z,5.00
2022-11-05T23:32:08.612Z,5.13
2022-11-05T23:34:35.092Z,4.72
2022-11-05T23:37:20.501Z,5.30
2022-11-05T23:42:31.869Z,4.03
2022-11-05T23:45:17.127Z,4.05
2022-11-05T23:48:01.764Z,3.53
2022-11-05T23:50:32.228Z,4.35
2022-11-05T23:53:02.126Z,4.72
2022-11-05T23:55:30.591Z,3.92
2022-11-05T23:57:56.902Z,4.68
